Time;durP1;ratioP1;P1;durP2;ratioP2;P2;SDS_P1;SDS_P2;PMS_P1;PMS_P2;Temp;Humidity;BMP_temperature;BMP_pressure;BME280_temperature;BME280_humidity;BME280_pressure;Samples;Min_cycle;Max_cycle;Signal;HPM_P1;HPM_P2
2021/10/07 00:00:35;;;;;;;0.90;0.90;;;11.80;88.60;;;;;;5011040;28;20195;-74
2021/10/07 00:03:01;;;;;;;1.40;1.40;;;11.90;88.60;;;;;;5015654;28;20188;-74
2021/10/07 00:05:27;;;;;;;1.02;1.02;;;11.90;88.60;;;;;;5014067;28;20269;-73
2021/10/07 00:07:54;;;;;;;1.00;1.00;;;11.90;88.70;;;;;;5011762;28;20187;-73
2021/10/07 00:10:19;;;;;;;1.27;1.27;;;11.80;88.90;;;;;;5013089;28;20324;-73
2021/10/07 00:12:45;;;;;;;1.65;1.58;;;11.80;88.90;;;;;;5013856;28;20739;-74
2021/10/07 00:15:11;;;;;;;2.97;1.85;;;11.80;88.90;;;;;;5009900;28;20315;-74
2021/10/07 00:17:36;;;;;;;1.38;1.35;;;11.80;89.00;;;;;;5011942;28;20181;-74
2021/10/07 00:20:07;;;;;;;1.35;1.35;;;11.80;89.00;;;;;;5013680;28;20189;-73
2021/10/07 00:22:33;;;;;;;1.65;1.65;;;11.80;88.70;;;;;;5012868;28;20172;-74
2021/10/07 00:24:59;;;;;;;1.38;1.38;;;;;;;;;;5011078;28;20227;-74
2021/10/07 00:27:25;;;;;;;1.73;1.70;;;11.90;88.80;;;;;;5010592;28;20185;-73
2021/10/07 00:29:54;;;;;;;2.05;1.77;;;;;;;;;;5012517;28;20192;-74
2021/10/07 00:32:24;;;;;;;2.42;2.33;;;11.90;89.30;;;;;;5015732;28;20196;-74
2021/10/07 00:35:06;;;;;;;3.55;2.70;;;11.80;89.40;;;;;;5014661;28;20199;-69
2021/10/07 00:40:06;;;;;;;2.47;2.38;;;11.80;90.00;;;;;;5008402;28;20401;-69
2021/10/07 00:42:31;;;;;;;2.83;2.63;;;11.70;90.10;;;;;;5014606;28;20177;-68
2021/10/07 00:44:57;;;;;;;3.42;2.78;;;11.70;90.30;;;;;;5010392;28;20185;-69
2021/10/07 00:47:23;;;;;;;3.17;3.08;;;11.60;90.50;;;;;;5015846;28;20180;-70
2021/10/07 00:49:49;;;;;;;2.20;2.10;;;11.60;90.30;;;;;;5013041;28;20593;-69
2021/10/07 00:52:18;;;;;;;2.97;2.63;;;11.70;90.50;;;;;;5014994;28;20176;-68
2021/10/07 00:54:49;;;;;;;3.42;3.13;;;11.60;90.70;;;;;;5015669;28;20176;-68
2021/10/07 00:57:19;;;;;;;3.10;2.97;;;11.50;91.00;;;;;;5004903;28;20193;-69
2021/10/07 00:59:46;;;;;;;3.35;3.05;;;11.50;90.90;;;;;;5011084;28;20177;-69
2021/10/07 01:02:12;;;;;;;4.50;2.88;;;11.50;91.00;;;;;;5011106;28;20189;-68
2021/10/07 01:04:38;;;;;;;2.40;2.30;;;11.50;91.00;;;;;;5011609;28;20193;-68
2021/10/07 01:07:05;;;;;;;2.88;2.70;;;11.60;90.70;;;;;;5009931;28;20216;-69
2021/10/07 01:09:31;;;;;;;2.88;2.67;;;11.60;90.60;;;;;;5038639;28;20745;-69
2021/10/07 01:12:00;;;;;;;2.72;2.60;;;11.60;90.60;;;;;;5012334;28;20223;-70
2021/10/07 01:14:52;;;;;;;1.88;1.88;;;11.60;90.40;;;;;;5010836;28;20185;-70
2021/10/07 01:17:20;;;;;;;2.83;2.63;;;11.60;90.50;;;;;;5010888;28;20969;-68
2021/10/07 01:19:51;;;;;;;2.45;2.35;;;11.60;90.60;;;;;;5012618;28;20185;-68
2021/10/07 01:22:18;;;;;;;3.90;2.47;;;11.50;90.80;;;;;;5008756;28;20180;-69
2021/10/07 01:24:44;;;;;;;2.30;1.83;;;11.50;90.80;;;;;;5011755;28;20216;-70
2021/10/07 01:27:10;;;;;;;2.40;2.28;;;11.50;90.80;;;;;;5012848;28;20224;-69
2021/10/07 01:29:37;;;;;;;2.10;2.00;;;11.50;90.80;;;;;;5010512;28;20675;-69
2021/10/07 01:32:07;;;;;;;3.03;2.70;;;11.50;90.70;;;;;;5015504;28;20208;-69
2021/10/07 01:34:33;;;;;;;2.65;2.45;;;11.50;90.70;;;;;;5008808;28;20184;-68
2021/10/07 01:36:59;;;;;;;2.67;2.47;;;11.50;91.00;;;;;;5014853;28;20241;-68
2021/10/07 01:39:25;;;;;;;2.88;2.65;;;11.50;90.90;;;;;;4999525;28;20189;-68
2021/10/07 01:41:51;;;;;;;3.03;2.70;;;11.50;91.10;;;;;;5012903;28;20183;-69
2021/10/07 01:44:22;;;;;;;4.00;2.60;;;11.50;91.20;;;;;;5010328;28;20180;-67
2021/10/07 01:46:48;;;;;;;6.53;2.80;;;11.40;91.30;;;;;;5008538;28;20215;-70
2021/10/07 01:49:14;;;;;;;2.20;2.20;;;11.40;91.50;;;;;;5009644;28;20986;-68
2021/10/07 01:51:40;;;;;;;3.05;2.60;;;11.40;91.30;;;;;;5016056;28;20180;-68
2021/10/07 01:54:06;;;;;;;2.35;2.25;;;11.40;91.20;;;;;;5008311;28;20189;-67
2021/10/07 01:56:33;;;;;;;3.00;2.80;;;11.40;91.00;;;;;;5011710;28;20271;-68
2021/10/07 01:58:59;;;;;;;3.13;2.83;;;11.50;91.00;;;;;;5013452;28;20653;-67
2021/10/07 02:01:25;;;;;;;1.92;1.83;;;11.50;90.90;;;;;;5020209;28;20188;-68
2021/10/07 02:03:51;;;;;;;3.95;2.15;;;11.50;90.90;;;;;;5017694;28;20169;-67
2021/10/07 02:06:17;;;;;;;2.67;2.58;;;11.50;90.90;;;;;;5011822;28;20236;-67
2021/10/07 02:08:43;;;;;;;2.83;2.50;;;11.50;91.00;;;;;;5012119;28;20327;-67
2021/10/07 02:11:10;;;;;;;2.55;2.45;;;11.40;91.20;;;;;;5016929;28;20199;-70
2021/10/07 02:13:36;;;;;;;2.35;2.25;;;11.40;91.20;;;;;;5013242;28;20193;-69
2021/10/07 02:16:02;;;;;;;3.90;2.95;;;11.40;91.00;;;;;;5013238;28;20263;-69
2021/10/07 02:18:27;;;;;;;3.03;2.92;;;11.40;91.30;;;;;;5011000;28;20682;-68
2021/10/07 02:20:54;;;;;;;2.73;2.63;;;11.40;91.20;;;;;;5013132;28;20282;-68
2021/10/07 02:23:20;;;;;;;2.37;2.23;;;11.40;91.30;;;;;;5008094;28;20193;-68
2021/10/07 02:25:46;;;;;;;2.60;2.40;;;11.40;91.50;;;;;;5020363;28;20694;-69
2021/10/07 02:28:13;;;;;;;2.33;2.22;;;11.40;91.50;;;;;;5008442;28;20671;-69
2021/10/07 02:30:40;;;;;;;2.90;2.47;;;11.40;91.30;;;;;;5013749;28;20768;-68
2021/10/07 02:33:07;;;;;;;3.10;2.90;;;11.50;90.70;;;;;;5015488;28;20212;-68
2021/10/07 02:35:33;;;;;;;2.40;2.30;;;11.50;90.70;;;;;;5017129;28;20199;-67
2021/10/07 02:37:58;;;;;;;2.50;2.40;;;11.60;90.50;;;;;;5015920;28;20189;-69
2021/10/07 02:40:25;;;;;;;2.72;2.63;;;11.50;90.10;;;;;;5003744;28;20204;-69
2021/10/07 02:42:50;;;;;;;2.87;2.47;;;11.60;90.10;;;;;;5017399;28;20275;-70
2021/10/07 02:45:17;;;;;;;2.47;2.37;;;11.50;89.90;;;;;;5013433;28;20706;-69
2021/10/07 02:47:43;;;;;;;2.37;2.17;;;11.50;89.50;;;;;;5012900;28;20188;-67
2021/10/07 02:50:10;;;;;;;1.90;1.80;;;11.50;89.40;;;;;;5011437;28;20196;-67
2021/10/07 02:52:36;;;;;;;2.37;2.27;;;11.50;89.00;;;;;;5018238;28;20172;-69
2021/10/07 02:55:03;;;;;;;4.07;2.53;;;11.50;88.70;;;;;;5012389;28;20284;-68
2021/10/07 02:57:30;;;;;;;2.80;2.70;;;11.50;88.70;;;;;;5009174;28;20188;-68
2021/10/07 02:59:56;;;;;;;2.55;2.45;;;11.50;88.50;;;;;;5006240;28;21823;-68
2021/10/07 03:02:22;;;;;;;3.15;2.55;;;11.60;88.30;;;;;;5018287;28;20191;-67
2021/10/07 03:04:52;;;;;;;2.90;2.70;;;11.60;88.20;;;;;;5016786;28;20215;-69
2021/10/07 03:07:20;;;;;;;2.33;2.23;;;11.60;88.10;;;;;;5011366;28;20326;-69
2021/10/07 03:09:46;;;;;;;6.13;2.33;;;11.70;87.90;;;;;;5011509;28;20195;-68
2021/10/07 03:12:12;;;;;;;6.37;2.53;;;11.60;87.80;;;;;;5012961;28;20603;-68
2021/10/07 03:14:40;;;;;;;3.23;2.50;;;11.70;87.90;;;;;;5012757;28;20185;-68
2021/10/07 03:17:06;;;;;;;6.43;2.30;;;11.70;87.50;;;;;;5013245;28;20185;-69
2021/10/07 03:19:32;;;;;;;2.90;2.72;;;11.70;87.60;;;;;;5011590;28;20185;-69
2021/10/07 03:21:58;;;;;;;3.15;2.85;;;11.70;87.80;;;;;;5016837;28;20195;-69
2021/10/07 03:24:24;;;;;;;2.47;2.38;;;11.70;87.90;;;;;;5009380;28;20199;-69
2021/10/07 03:26:49;;;;;;;2.33;2.22;;;11.60;88.10;;;;;;5012857;28;20274;-67
2021/10/07 03:29:15;;;;;;;3.95;2.50;;;11.60;88.30;;;;;;5012853;28;20667;-67
2021/10/07 03:31:41;;;;;;;3.75;2.78;;;11.60;88.50;;;;;;5011691;28;20185;-69
2021/10/07 03:34:07;;;;;;;3.08;2.50;;;11.50;88.80;;;;;;5015053;28;20287;-69
2021/10/07 03:36:32;;;;;;;3.08;2.90;;;11.50;88.70;;;;;;5013433;28;20177;-68
2021/10/07 03:38:58;;;;;;;3.65;2.83;;;11.50;88.90;;;;;;5015754;28;20685;-70
2021/10/07 03:41:24;;;;;;;2.25;2.15;;;11.50;88.80;;;;;;5010623;28;20184;-69
2021/10/07 03:43:50;;;;;;;3.45;3.13;;;11.50;88.80;;;;;;5013146;28;20522;-70
2021/10/07 03:46:17;;;;;;;3.20;2.88;;;11.60;88.70;;;;;;5010367;28;20208;-69
2021/10/07 03:48:43;;;;;;;2.55;2.17;;;11.60;88.80;;;;;;5010790;28;20186;-70
2021/10/07 03:51:10;;;;;;;3.08;2.88;;;11.60;88.50;;;;;;5008758;28;20774;-70
2021/10/07 03:53:35;;;;;;;3.00;2.75;;;11.60;88.80;;;;;;5010094;28;20193;-69
2021/10/07 03:56:02;;;;;;;3.03;2.60;;;11.60;88.50;;;;;;5019036;28;20184;-69
2021/10/07 03:58:28;;;;;;;7.17;3.60;;;11.60;88.70;;;;;;5012893;28;20189;-70
2021/10/07 04:00:54;;;;;;;2.47;2.38;;;11.70;88.70;;;;;;5011468;28;20181;-70
2021/10/07 04:03:19;;;;;;;2.37;2.27;;;11.70;88.70;;;;;;5012454;28;20685;-70
2021/10/07 04:05:47;;;;;;;13.17;2.93;;;11.70;88.90;;;;;;5009986;28;20208;-70
2021/10/07 04:08:13;;;;;;;3.65;3.38;;;11.70;88.70;;;;;;5009184;28;20262;-70
2021/10/07 04:10:39;;;;;;;3.17;3.07;;;11.70;88.80;;;;;;5010668;28;20184;-69
2021/10/07 04:13:05;;;;;;;4.60;3.00;;;11.70;88.70;;;;;;5013492;28;20196;-69
2021/10/07 04:15:31;;;;;;;2.97;2.75;;;11.70;88.80;;;;;;5014439;28;20666;-70
2021/10/07 04:17:57;;;;;;;3.40;3.20;;;11.60;88.80;;;;;;5013471;28;20185;-69
2021/10/07 04:20:23;;;;;;;5.57;3.00;;;;;;;;;;5011126;28;20184;-70
2021/10/07 04:22:49;;;;;;;3.70;3.35;;;11.60;88.80;;;;;;5011817;28;20268;-70
2021/10/07 04:25:15;;;;;;;5.47;2.97;;;11.50;88.90;;;;;;5006061;28;20351;-69
2021/10/07 04:27:41;;;;;;;3.27;3.07;;;11.50;88.70;;;;;;5010699;28;20188;-69
2021/10/07 04:30:08;;;;;;;2.83;2.38;;;11.50;88.50;;;;;;5010961;28;20183;-70
2021/10/07 04:32:34;;;;;;;2.25;2.25;;;11.50;88.40;;;;;;5007773;28;20182;-69
2021/10/07 04:35:00;;;;;;;5.55;3.03;;;11.40;88.50;;;;;;5007968;28;20184;-71
2021/10/07 04:37:25;;;;;;;2.63;2.53;;;11.50;88.60;;;;;;5013313;28;20188;-69
2021/10/07 04:39:51;;;;;;;5.85;3.05;;;11.50;88.70;;;;;;5008350;28;20215;-71
2021/10/07 04:42:17;;;;;;;2.83;2.55;;;11.50;88.50;;;;;;5010634;28;20180;-71
2021/10/07 04:44:43;;;;;;;3.28;2.90;;;11.40;88.70;;;;;;5007893;28;20985;-71
2021/10/07 04:47:09;;;;;;;2.53;2.35;;;11.40;88.70;;;;;;5008449;28;20213;-72
2021/10/07 04:49:34;;;;;;;2.53;1.92;;;11.40;88.50;;;;;;5007419;28;20256;-68
2021/10/07 04:52:00;;;;;;;2.33;2.15;;;11.40;88.60;;;;;;5014072;28;20172;-67
2021/10/07 04:54:26;;;;;;;2.83;2.60;;;11.40;88.50;;;;;;5011889;28;20238;-67
2021/10/07 04:56:51;;;;;;;3.22;2.90;;;11.40;88.40;;;;;;5016737;28;20189;-68
2021/10/07 04:59:17;;;;;;;2.80;2.03;;;11.40;88.20;;;;;;5008184;28;20177;-70
2021/10/07 05:01:43;;;;;;;2.42;2.17;;;11.40;88.30;;;;;;5013363;28;20582;-68
2021/10/07 05:04:09;;;;;;;2.10;2.00;;;11.40;88.10;;;;;;5004252;28;20690;-69
2021/10/07 05:06:35;;;;;;;2.13;2.03;;;11.40;88.10;;;;;;5007451;28;20712;-71
2021/10/07 05:09:01;;;;;;;2.63;2.10;;;11.40;88.10;;;;;;5013610;28;20265;-73
2021/10/07 05:11:26;;;;;;;2.50;2.40;;;11.50;88.20;;;;;;5010415;28;20221;-72
2021/10/07 05:13:52;;;;;;;4.45;2.53;;;11.50;88.20;;;;;;5013408;28;20184;-71
2021/10/07 05:16:18;;;;;;;3.55;2.60;;;11.40;88.20;;;;;;5010771;28;20748;-68
2021/10/07 05:18:44;;;;;;;2.20;2.10;;;11.40;88.40;;;;;;5011719;28;20189;-71
2021/10/07 05:21:09;;;;;;;4.38;2.95;;;11.40;88.40;;;;;;5009996;28;20181;-70
2021/10/07 05:23:35;;;;;;;2.90;2.57;;;11.40;88.60;;;;;;5012284;28;20188;-71
2021/10/07 05:26:01;;;;;;;4.22;2.63;;;11.40;88.60;;;;;;5012604;28;20600;-69
2021/10/07 05:28:27;;;;;;;2.60;2.40;;;11.40;88.60;;;;;;5009332;28;20176;-70
2021/10/07 05:30:53;;;;;;;2.83;2.70;;;11.40;88.60;;;;;;5012471;28;20650;-70
2021/10/07 05:33:20;;;;;;;2.42;2.30;;;11.40;88.70;;;;;;5006764;28;20189;-71
2021/10/07 05:35:46;;;;;;;2.33;2.22;;;11.40;88.60;;;;;;5010646;28;20213;-71
2021/10/07 05:38:12;;;;;;;3.93;2.50;;;11.40;88.60;;;;;;5008157;28;20196;-71
2021/10/07 05:40:38;;;;;;;2.10;2.00;;;11.40;88.80;;;;;;5006913;28;20208;-70
2021/10/07 05:43:04;;;;;;;7.10;2.83;;;11.40;88.70;;;;;;5010080;28;20211;-72
2021/10/07 05:45:30;;;;;;;2.63;2.10;;;11.40;88.70;;;;;;5004277;28;20992;-70
2021/10/07 05:47:55;;;;;;;2.95;2.80;;;11.40;88.50;;;;;;5008982;28;20679;-72
2021/10/07 05:50:21;;;;;;;2.15;2.05;;;11.40;88.70;;;;;;5010522;28;20189;-71
2021/10/07 05:52:47;;;;;;;2.85;2.10;;;11.50;88.40;;;;;;5014649;28;20180;-72
2021/10/07 05:55:13;;;;;;;2.63;2.42;;;;;;;;;;5009969;28;20670;-71
2021/10/07 05:57:39;;;;;;;3.80;1.98;;;11.50;88.40;;;;;;5011200;28;20689;-71
2021/10/07 06:00:08;;;;;;;2.30;2.08;;;11.50;88.30;;;;;;5011147;28;20180;-71
2021/10/07 06:02:37;;;;;;;2.42;2.33;;;11.60;88.00;;;;;;5015251;28;20265;-70
2021/10/07 06:05:05;;;;;;;1.95;1.85;;;11.60;87.50;;;;;;5010239;28;20178;-71
2021/10/07 06:07:30;;;;;;;2.00;1.80;;;11.60;87.50;;;;;;5017324;28;20184;-71
2021/10/07 06:09:57;;;;;;;2.88;1.80;;;11.60;87.50;;;;;;5017945;28;20572;-71
2021/10/07 06:12:22;;;;;;;2.00;1.90;;;11.70;87.60;;;;;;5016189;28;20271;-70
2021/10/07 06:14:48;;;;;;;2.92;1.80;;;11.70;87.50;;;;;;5011374;28;20177;-70
2021/10/07 06:17:14;;;;;;;2.35;2.15;;;11.80;87.20;;;;;;5012790;28;20284;-70
2021/10/07 06:19:43;;;;;;;1.73;1.63;;;11.80;87.10;;;;;;5013804;28;20562;-69
2021/10/07 06:22:09;;;;;;;2.03;1.80;;;11.80;87.00;;;;;;5012673;28;20718;-71
2021/10/07 06:24:36;;;;;;;1.77;1.67;;;11.80;86.90;;;;;;5015180;28;20265;-71
2021/10/07 06:27:02;;;;;;;1.85;1.75;;;11.80;87.00;;;;;;5017254;28;20243;-71
2021/10/07 06:29:27;;;;;;;1.45;1.35;;;11.80;87.20;;;;;;5011714;28;20212;-70
2021/10/07 06:31:54;;;;;;;1.95;1.38;;;11.90;87.10;;;;;;5005738;28;20702;-70
2021/10/07 06:34:20;;;;;;;1.30;1.30;;;11.90;87.10;;;;;;5002503;28;20197;-70
2021/10/07 06:36:45;;;;;;;1.10;1.10;;;11.80;86.90;;;;;;5010937;28;20248;-69
2021/10/07 06:39:11;;;;;;;2.67;1.08;;;11.90;87.20;;;;;;5010987;28;20223;-69
2021/10/07 06:41:38;;;;;;;2.28;1.00;;;12.00;87.00;;;;;;5013076;28;20201;-69
2021/10/07 06:44:04;;;;;;;2.78;1.38;;;12.10;87.00;;;;;;5014357;28;20180;-71
2021/10/07 06:46:30;;;;;;;5.13;1.70;;;12.10;86.90;;;;;;5019427;28;20291;-69
2021/10/07 06:48:55;;;;;;;1.63;1.52;;;12.10;87.10;;;;;;5017096;28;20684;-72
2021/10/07 06:51:23;;;;;;;2.35;1.30;;;12.10;87.20;;;;;;5018667;28;20215;-69
2021/10/07 06:53:52;;;;;;;1.63;1.63;;;12.10;87.20;;;;;;5016164;28;20177;-71
2021/10/07 06:56:19;;;;;;;1.58;1.52;;;12.00;87.90;;;;;;5015960;28;20192;-71
2021/10/07 06:58:45;;;;;;;3.75;1.95;;;12.00;88.20;;;;;;5017983;28;20264;-70
2021/10/07 07:01:10;;;;;;;2.53;2.33;;;12.00;88.30;;;;;;5021852;28;20335;-70
2021/10/07 07:03:36;;;;;;;4.22;2.47;;;12.00;88.20;;;;;;5012769;28;20179;-71
2021/10/07 07:06:02;;;;;;;1.80;1.63;;;12.00;88.60;;;;;;5019415;28;20213;-71
2021/10/07 07:08:28;;;;;;;2.58;1.63;;;12.00;88.60;;;;;;5016940;28;20625;-71
2021/10/07 07:10:53;;;;;;;2.05;1.90;;;12.00;88.80;;;;;;5017151;28;20187;-70
2021/10/07 07:13:19;;;;;;;2.45;1.48;;;11.90;89.30;;;;;;5018698;28;20200;-70
2021/10/07 07:15:45;;;;;;;1.90;1.80;;;11.80;89.80;;;;;;5012236;28;20195;-70
2021/10/07 07:18:10;;;;;;;3.55;1.75;;;11.80;90.10;;;;;;5017266;28;20193;-70
2021/10/07 07:20:36;;;;;;;10.02;1.85;;;11.70;90.50;;;;;;5015204;28;20180;-70
2021/10/07 07:23:06;;;;;;;1.63;1.20;;;11.50;90.60;;;;;;5014831;28;20203;-70
2021/10/07 07:25:32;;;;;;;2.10;1.77;;;11.40;91.50;;;;;;5011012;28;20205;-70
2021/10/07 07:27:58;;;;;;;1.95;1.20;;;11.40;91.50;;;;;;5013703;28;20180;-70
2021/10/07 07:30:23;;;;;;;1.80;1.63;;;11.40;91.60;;;;;;5019013;28;20865;-70
2021/10/07 07:32:49;;;;;;;1.48;1.48;;;11.30;91.90;;;;;;5016183;28;20188;-70
2021/10/07 07:35:15;;;;;;;1.43;1.33;;;11.30;92.10;;;;;;5014024;28;20180;-70
2021/10/07 07:37:41;;;;;;;1.73;1.63;;;11.40;92.10;;;;;;5011575;28;20714;-69
2021/10/07 07:40:07;;;;;;;1.48;1.48;;;11.40;92.00;;;;;;5017959;28;20181;-69
2021/10/07 07:42:33;;;;;;;5.43;1.73;;;11.40;91.90;;;;;;5019154;28;20208;-71
2021/10/07 07:44:59;;;;;;;2.13;1.98;;;11.40;91.30;;;;;;5019494;28;20778;-70
2021/10/07 07:47:24;;;;;;;1.50;1.40;;;11.50;91.10;;;;;;5012682;28;20294;-70
2021/10/07 07:49:50;;;;;;;2.08;1.95;;;11.50;91.00;;;;;;5014127;28;20172;-69
2021/10/07 07:52:16;;;;;;;1.60;1.50;;;11.60;91.00;;;;;;5011005;28;20216;-70
2021/10/07 07:54:42;;;;;;;1.70;1.60;;;11.60;90.70;;;;;;5009821;28;20719;-71
2021/10/07 07:57:07;;;;;;;2.70;2.40;;;11.60;90.80;;;;;;5018913;28;20569;-71
2021/10/07 07:59:33;;;;;;;3.13;2.33;;;11.70;90.70;;;;;;5013399;28;20181;-71
2021/10/07 08:01:59;;;;;;;2.25;2.05;;;11.70;90.30;;;;;;5013537;28;20181;-71
2021/10/07 08:04:25;;;;;;;1.75;1.73;;;11.70;90.30;;;;;;5019756;28;20181;-71
2021/10/07 08:06:51;;;;;;;2.10;2.00;;;11.70;90.10;;;;;;5015487;28;20773;-71
2021/10/07 08:09:16;;;;;;;1.40;1.40;;;11.70;89.40;;;;;;5015772;28;20279;-70
2021/10/07 08:11:42;;;;;;;2.28;2.13;;;11.70;89.50;;;;;;5013937;28;20272;-70
2021/10/07 08:14:08;;;;;;;6.43;2.08;;;11.80;89.50;;;;;;5016543;28;20184;-70
2021/10/07 08:16:35;;;;;;;1.77;1.73;;;11.80;89.50;;;;;;5014409;28;20577;-70
2021/10/07 08:19:01;;;;;;;4.97;1.60;;;11.90;89.10;;;;;;5014611;28;20550;-71
2021/10/07 08:21:27;;;;;;;2.05;1.95;;;11.90;88.20;;;;;;5013939;28;20181;-70
2021/10/07 08:23:54;;;;;;;2.50;2.00;;;11.80;87.50;;;;;;5014025;28;20913;-70
2021/10/07 08:26:20;;;;;;;2.20;2.00;;;11.80;87.80;;;;;;5019007;28;20305;-71
2021/10/07 08:28:46;;;;;;;2.67;2.08;;;11.80;87.70;;;;;;5013409;28;20207;-71
2021/10/07 08:31:12;;;;;;;3.13;2.15;;;11.80;87.20;;;;;;5015209;28;20184;-71
2021/10/07 08:33:39;;;;;;;1.55;1.52;;;11.90;87.40;;;;;;5015208;28;20173;-70
2021/10/07 08:36:05;;;;;;;2.33;1.50;;;11.90;87.30;;;;;;5017221;28;20198;-71
2021/10/07 08:38:32;;;;;;;2.75;1.85;;;11.90;86.80;;;;;;5016531;28;20189;-71
2021/10/07 08:40:59;;;;;;;1.25;1.23;;;12.00;86.40;;;;;;5015353;28;20181;-71
2021/10/07 08:43:26;;;;;;;2.35;1.60;;;12.00;85.90;;;;;;5016720;28;20184;-71
2021/10/07 08:45:52;;;;;;;4.88;2.05;;;12.10;85.90;;;;;;5019801;28;20252;-70
2021/10/07 08:48:18;;;;;;;2.00;1.90;;;12.10;85.20;;;;;;5017641;28;20196;-70
2021/10/07 08:50:44;;;;;;;6.38;1.77;;;12.00;85.10;;;;;;5015762;28;20176;-70
2021/10/07 08:53:10;;;;;;;2.25;1.75;;;12.00;84.80;;;;;;5012890;28;21215;-70
2021/10/07 08:55:36;;;;;;;1.42;1.33;;;11.90;84.50;;;;;;5013884;28;20176;-71
2021/10/07 08:58:02;;;;;;;1.50;1.40;;;11.90;84.50;;;;;;5010953;28;20607;-70
2021/10/07 09:00:28;;;;;;;2.78;1.30;;;11.90;84.40;;;;;;5014016;28;20188;-70
2021/10/07 09:02:56;;;;;;;1.73;1.60;;;11.90;84.60;;;;;;5011234;28;20173;-70
2021/10/07 09:05:24;;;;;;;1.50;1.50;;;12.00;85.10;;;;;;5013885;28;20196;-71
2021/10/07 09:07:57;;;;;;;3.78;1.33;;;12.00;85.00;;;;;;5012566;28;20177;-70
2021/10/07 09:10:47;;;;;;;1.48;1.40;;;12.00;84.70;;;;;;5011828;28;20320;-70
2021/10/07 09:13:22;;;;;;;6.70;1.90;;;12.00;84.50;;;;;;5016203;28;20197;-71
2021/10/07 09:15:50;;;;;;;3.90;1.38;;;12.00;84.00;;;;;;5014778;28;20180;-70
2021/10/07 09:18:18;;;;;;;2.88;1.73;;;12.00;84.30;;;;;;5013706;28;20168;-70
2021/10/07 09:20:46;;;;;;;1.80;1.70;;;12.00;84.30;;;;;;5011715;28;20208;-70
2021/10/07 09:23:21;;;;;;;1.73;1.67;;;12.00;84.10;;;;;;5018252;28;20263;-70
2021/10/07 09:26:08;;;;;;;3.90;1.50;;;12.00;83.90;;;;;;5013310;28;20204;-69
2021/10/07 09:28:54;;;;;;;1.80;1.23;;;12.00;83.60;;;;;;5013989;28;20177;-69
2021/10/07 09:31:24;;;;;;;3.80;2.67;;;12.10;83.80;;;;;;5014802;28;20209;-69
2021/10/07 09:33:53;;;;;;;2.30;1.65;;;12.10;84.20;;;;;;5011034;28;20203;-70
2021/10/07 09:36:20;;;;;;;2.03;1.75;;;12.10;83.90;;;;;;5011196;28;20276;-70
2021/10/07 09:38:49;;;;;;;2.63;1.95;;;12.10;83.90;;;;;;5009039;28;20189;-70
2021/10/07 09:41:21;;;;;;;2.55;2.15;;;12.20;83.70;;;;;;5014272;28;20187;-71
2021/10/07 09:44:08;;;;;;;1.73;1.73;;;12.20;83.40;;;;;;5015812;28;20263;-70
2021/10/07 09:46:47;;;;;;;1.55;1.55;;;12.20;83.40;;;;;;5013097;28;20207;-70
2021/10/07 09:49:21;;;;;;;1.90;1.80;;;12.20;83.60;;;;;;5012311;28;20200;-69
2021/10/07 09:51:54;;;;;;;2.97;1.40;;;12.20;83.30;;;;;;5007100;28;20188;-70
2021/10/07 09:54:27;;;;;;;4.43;1.48;;;12.30;83.70;;;;;;5017393;28;20204;-69
2021/10/07 09:56:58;;;;;;;1.63;1.52;;;12.20;83.20;;;;;;5015411;28;20180;-69
2021/10/07 09:59:26;;;;;;;4.57;1.35;;;12.20;83.30;;;;;;5019619;28;20188;-69
2021/10/07 10:01:54;;;;;;;4.07;1.70;;;12.20;83.30;;;;;;5015768;28;20180;-71
2021/10/07 10:04:21;;;;;;;1.95;1.85;;;12.20;83.30;;;;;;5015921;28;20257;-71
2021/10/07 10:06:47;;;;;;;1.15;1.15;;;12.20;83.60;;;;;;5010955;28;20304;-71
2021/10/07 10:09:13;;;;;;;1.38;1.30;;;12.20;83.60;;;;;;5014200;28;20271;-71
2021/10/07 10:11:41;;;;;;;1.05;1.05;;;12.20;83.70;;;;;;5014588;28;20197;-68
2021/10/07 10:14:08;;;;;;;1.25;1.25;;;12.20;84.20;;;;;;5017209;28;20689;-71
2021/10/07 10:16:36;;;;;;;2.05;1.52;;;12.20;84.10;;;;;;5011451;28;20640;-71
2021/10/07 10:19:04;;;;;;;1.42;1.30;;;12.30;83.40;;;;;;5015430;28;20189;-72
2021/10/07 10:21:40;;;;;;;3.85;1.40;;;12.30;83.70;;;;;;5015294;28;20185;-71
2021/10/07 10:24:08;;;;;;;1.42;1.42;;;12.40;83.40;;;;;;5013910;28;20176;-71
2021/10/07 10:26:39;;;;;;;5.40;2.10;;;12.40;83.40;;;;;;5022986;28;20274;-70
2021/10/07 10:29:34;;;;;;;2.08;1.92;;;12.40;82.90;;;;;;5017531;28;20725;-71
2021/10/07 10:32:02;;;;;;;3.35;1.73;;;12.50;83.10;;;;;;4992822;28;20194;-71
2021/10/07 10:34:41;;;;;;;1.55;1.55;;;12.50;82.90;;;;;;5015465;28;20257;-70
2021/10/07 10:37:09;;;;;;;5.15;1.50;;;12.40;82.40;;;;;;4993071;28;20209;-71
2021/10/07 10:39:39;;;;;;;1.25;1.25;;;12.40;83.30;;;;;;4993791;28;20182;-71
2021/10/07 10:42:08;;;;;;;1.80;1.70;;;12.40;83.10;;;;;;4996974;28;20882;-71
2021/10/07 10:44:41;;;;;;;1.85;1.65;;;12.50;83.20;;;;;;4998607;28;20181;-71
2021/10/07 10:47:06;;;;;;;1.23;1.23;;;12.50;83.00;;;;;;4994100;28;20260;-71
2021/10/07 10:49:54;;;;;;;1.30;1.30;;;12.40;83.40;;;;;;4997325;28;20275;-70
2021/10/07 10:52:22;;;;;;;2.45;1.20;;;12.40;83.10;;;;;;4992180;28;20181;-71
2021/10/07 10:55:10;;;;;;;1.15;1.15;;;12.50;82.80;;;;;;4996888;28;20280;-71
2021/10/07 10:57:39;;;;;;;3.08;1.02;;;12.50;83.10;;;;;;4993923;28;20184;-71
2021/10/07 11:00:12;;;;;;;1.65;1.55;;;12.50;82.60;;;;;;4995480;28;20214;-70
2021/10/07 11:02:42;;;;;;;1.40;1.30;;;12.50;83.00;;;;;;4993325;28;20201;-70
2021/10/07 11:05:12;;;;;;;2.05;1.08;;;12.40;82.50;;;;;;4996781;28;20289;-71
2021/10/07 11:07:39;;;;;;;1.25;1.25;;;12.40;82.50;;;;;;4999348;28;20196;-71
2021/10/07 11:10:28;;;;;;;2.88;1.10;;;12.40;82.50;;;;;;5018616;28;20208;-70
2021/10/07 11:12:58;;;;;;;1.92;1.15;;;12.40;82.50;;;;;;5019222;28;20949;-70
2021/10/07 11:15:29;;;;;;;2.58;1.30;;;12.30;82.50;;;;;;5015963;28;20223;-70
2021/10/07 11:17:56;;;;;;;3.10;1.50;;;12.40;82.80;;;;;;5013681;28;20189;-71
2021/10/07 11:20:28;;;;;;;4.18;1.25;;;12.50;83.10;;;;;;5019599;28;20199;-71
2021/10/07 11:23:13;;;;;;;1.20;1.05;;;12.50;83.20;;;;;;5016841;28;20177;-70
2021/10/07 11:25:54;;;;;;;3.78;0.82;;;12.50;83.60;;;;;;5018134;28;20209;-70
2021/10/07 11:28:45;;;;;;;3.38;1.13;;;12.50;84.30;;;;;;5016833;28;20572;-70
2021/10/07 11:31:16;;;;;;;1.75;1.10;;;12.50;84.30;;;;;;5013234;28;20204;-70
2021/10/07 11:33:46;;;;;;;1.30;1.20;;;12.50;84.00;;;;;;5010973;28;20595;-71
2021/10/07 11:36:15;;;;;;;4.90;1.00;;;12.60;84.40;;;;;;5005048;28;20687;-70
2021/10/07 11:38:43;;;;;;;2.58;1.65;;;12.60;84.50;;;;;;5012706;28;20719;-72
2021/10/07 11:41:10;;;;;;;1.95;1.70;;;12.60;83.90;;;;;;5015325;28;20654;-70
2021/10/07 11:43:37;;;;;;;8.38;1.25;;;12.70;84.30;;;;;;5012866;28;20177;-71
2021/10/07 11:46:19;;;;;;;4.70;1.08;;;12.70;84.10;;;;;;5012707;28;20590;-70
2021/10/07 11:48:47;;;;;;;1.35;1.23;;;12.80;83.70;;;;;;5010458;28;20176;-70
2021/10/07 11:51:28;;;;;;;1.35;1.08;;;12.80;84.70;;;;;;5016308;28;20901;-71
2021/10/07 11:53:54;;;;;;;2.35;1.38;;;12.80;84.20;;;;;;5009878;28;20263;-71
2021/10/07 11:56:25;;;;;;;1.88;1.65;;;12.90;84.60;;;;;;5013588;28;20275;-71
2021/10/07 11:59:10;;;;;;;5.57;1.85;;;12.90;83.90;;;;;;5008824;28;20177;-71
2021/10/07 12:01:36;;;;;;;3.33;1.60;;;13.00;83.30;;;;;;5011905;28;20189;-70
2021/10/07 12:04:04;;;;;;;1.60;1.50;;;13.00;83.30;;;;;;5014342;28;20213;-70
2021/10/07 12:06:35;;;;;;;1.60;1.33;;;13.00;83.60;;;;;;5016918;28;20306;-71
2021/10/07 12:09:02;;;;;;;2.15;1.65;;;13.10;83.70;;;;;;5007761;28;20239;-71
2021/10/07 12:11:31;;;;;;;1.45;1.35;;;13.00;83.40;;;;;;5013648;28;20188;-71
2021/10/07 12:13:59;;;;;;;4.65;1.92;;;13.00;81.80;;;;;;5012087;28;20223;-71
2021/10/07 12:16:32;;;;;;;3.80;2.35;;;13.00;81.90;;;;;;5007938;28;20189;-72
2021/10/07 12:19:02;;;;;;;3.20;2.20;;;12.90;81.90;;;;;;5005898;28;20311;-70
2021/10/07 12:21:39;;;;;;;8.20;5.18;;;12.90;81.90;;;;;;5012202;28;20698;-71
2021/10/07 12:24:10;;;;;;;19.20;5.57;;;12.80;82.10;;;;;;5012854;28;20180;-71
2021/10/07 12:26:49;;;;;;;7.10;4.97;;;12.70;82.80;;;;;;5011167;28;20889;-71
2021/10/07 12:29:25;;;;;;;12.02;8.52;;;12.80;82.60;;;;;;5008464;28;20271;-71
2021/10/07 12:32:02;;;;;;;16.20;8.70;;;12.80;82.90;;;;;;5014529;28;20184;-71
2021/10/07 12:34:29;;;;;;;18.33;8.93;;;12.80;82.90;;;;;;5006519;28;20191;-71
2021/10/07 12:37:01;;;;;;;12.73;7.85;;;12.80;82.90;;;;;;5012910;28;20192;-71
2021/10/07 12:39:37;;;;;;;10.88;8.48;;;12.70;82.90;;;;;;5013777;28;20180;-70
2021/10/07 12:42:05;;;;;;;15.45;7.88;;;12.80;84.00;;;;;;5009965;28;20223;-70
2021/10/07 12:44:46;;;;;;;11.63;8.02;;;12.80;84.50;;;;;;5012158;28;20247;-70
2021/10/07 12:47:18;;;;;;;12.45;7.32;;;12.80;84.60;;;;;;5005365;28;20244;-70
2021/10/07 12:49:50;;;;;;;10.85;6.28;;;12.70;84.20;;;;;;5010151;28;20191;-70
2021/10/07 12:52:21;;;;;;;9.23;5.53;;;12.70;84.70;;;;;;5014970;28;20774;-70
2021/10/07 12:55:02;;;;;;;4.47;4.10;;;12.60;85.90;;;;;;5017391;28;20243;-70